Lima, OH

7:43 PM EST on February 12, 2016 (GMT -0500)
APRSWXNET | | Change Station
CLOSE
Current Station
Personal Weather Station
Location: Lima, OH
Elevation: 861 ft
Nearby Weather Stations

Elev 861 ft 40.73 °N, 84.12 °W | Updated 43 minutes ago

Clear
Clear
22 °F
Feels Like 10 °F
N
13
Wind Variable Wind from NW
Gusts 22.0 mph

Today
High -- | Low -- °F
--% Chance of Precip.
Yesterday
High -- | Low -- °F
Precip. -- in
Pressure 30.11 in
Visibility 3.0 miles
Clouds Few 1300 ft
Scattered Clouds 3200 ft
Windchill 10 °F
Dew Point 16 °F
Humidity 77%
Rainfall in
Snow Depth Not available.
7:34 AM 6:06 PM
Waxing Crescent, 25% visible
SPECI KAOH 130031Z AUTO 30016G24KT 3SM -SN FEW013 SCT032 M08/M12 A3011 RMK AO2 PK WND 32027/0021 SNB20 P0000 T10831122
Pressure 30.11 in
Visibility 3.0 miles
Clouds Few 1300 ft
Scattered Clouds 3200 ft
Windchill 10 °F
Dew Point 16 °F
Humidity 77%
Rainfall in
Snow Depth Not available.
7:34 AM 6:06 PM
Waxing Crescent, 25% visible
SPECI KAOH 130031Z AUTO 30016G24KT 3SM -SN FEW013 SCT032 M08/M12 A3011 RMK AO2 PK WND 32027/0021 SNB20 P0000 T10831122

10-Day Weather Forecast

Almanac

Astronomy

Feb. 12, 2016 Rise Set
Actual Time
Civil Twilight
Nautical Twilight
Astronomical Twilight
Moon
Length of Visible Light
Length of Day
Tomorrow will be .
, % of the Moon is Illuminated

Today's Extremes

State Highs State Lows

Community

WunderPhotos

Upload Photos

1,892,444 photos uploaded!

WunderBlog® & News

Nearby

Air Quality

  Air Quality AQ Index Pollutant
Not available.

Snow Depth

Station Depth Elevation

Earthquake Activity

City Distance Mag. Time & Date
Minimum magnitude displayed is 2.5.

Coastal Water Temperatures

Place Temperature

Stations

Nearby Weather Stations

Station Location Temp. Windchill Dew Point Humidity Wind Precip. Elev Updated Type
                   

Watches & Warnings

There are currently no watches in effect.